createdAt,value
2022-11-24T00:01:25.099Z,67248.75
2022-11-24T00:04:04.166Z,67260.50
2022-11-24T00:06:33.979Z,67262.72
2022-11-24T00:09:02.156Z,67252.25
2022-11-24T00:11:33.131Z,67260.50
2022-11-24T00:14:01.684Z,67255.28
2022-11-24T00:16:33.941Z,67252.84
2022-11-24T00:19:03.800Z,67249.09
2022-11-24T00:21:32.295Z,67245.94
2022-11-24T00:24:00.350Z,67251.72
2022-11-24T00:26:37.329Z,67240.47
2022-11-24T00:29:07.796Z,67234.28
2022-11-24T00:31:37.714Z,67237.31
2022-11-24T00:34:09.800Z,67229.22
2022-11-24T00:36:37.478Z,67226.41
2022-11-24T00:39:07.232Z,67223.59
2022-11-24T00:41:35.035Z,67221.56
2022-11-24T00:44:02.432Z,67215.72
2022-11-24T00:46:29.904Z,67217.06
2022-11-24T00:48:57.865Z,67214.03
2022-11-24T00:51:27.981Z,67210.69
2022-11-24T00:53:56.470Z,67205.06
2022-11-24T00:56:25.100Z,67200.19
2022-11-24T00:58:52.716Z,67205.97
2022-11-24T01:01:23.523Z,67197.53
2022-11-24T01:03:51.863Z,67188.97
2022-11-24T01:06:24.766Z,67194.94
2022-11-24T01:08:52.701Z,67191.41
2022-11-24T01:11:21.203Z,67188.41
2022-11-24T01:13:51.532Z,67186.50
2022-11-24T01:16:21.217Z,67183.56
2022-11-24T01:18:48.961Z,67195.69
2022-11-24T01:21:17.249Z,67192.69
2022-11-24T01:23:44.655Z,67195.28
2022-11-24T01:26:14.790Z,67183.72
2022-11-24T01:28:46.715Z,67181.44
2022-11-24T01:31:15.648Z,67183.72
2022-11-24T01:33:43.023Z,67176.19
2022-11-24T01:36:10.307Z,67183.47
2022-11-24T01:38:37.500Z,67181.44
2022-11-24T01:41:08.001Z,67178.66
2022-11-24T01:43:35.587Z,67176.03
2022-11-24T01:46:21.628Z,67178.66
2022-11-24T01:49:03.197Z,67198.84
2022-11-24T01:51:34.701Z,67198.66
2022-11-24T01:54:13.972Z,67207.31
2022-11-24T01:56:44.371Z,67210.31
2022-11-24T01:59:15.330Z,67204.91
2022-11-24T02:01:43.174Z,67221.34
2022-11-24T02:04:13.040Z,67219.09
2022-11-24T02:06:44.118Z,67213.13
2022-11-24T02:09:17.251Z,67215.38
2022-11-24T02:11:45.012Z,67210.69
2022-11-24T02:14:15.398Z,67221.00
2022-11-24T02:16:48.181Z,67212.00
2022-11-24T02:19:39.911Z,67223.94
2022-11-24T02:22:27.104Z,67240.69
2022-11-24T02:25:07.262Z,67239.34
2022-11-24T02:27:34.717Z,67241.94
2022-11-24T02:30:02.101Z,67236.75
2022-11-24T02:32:31.984Z,67226.41
2022-11-24T02:35:07.460Z,67213.69
2022-11-24T02:37:34.913Z,67220.22
2022-11-24T02:40:02.055Z,67228.66
2022-11-24T02:42:37.312Z,67199.06
2022-11-24T02:45:05.019Z,67180.34
2022-11-24T02:47:32.224Z,67190.66
2022-11-24T02:49:59.322Z,67200.78
2022-11-24T02:52:26.586Z,67187.06
2022-11-24T02:54:53.769Z,67189.88
2022-11-24T02:57:22.911Z,67196.25
2022-11-24T02:59:50.084Z,67192.13
2022-11-24T03:02:17.329Z,67179.19
2022-11-24T03:04:44.728Z,67196.63
2022-11-24T03:07:12.475Z,67193.25
2022-11-24T03:09:39.624Z,67200.00
2022-11-24T03:12:07.356Z,67178.84
2022-11-24T03:14:34.636Z,67189.31
2022-11-24T03:17:03.590Z,67200.00
2022-11-24T03:19:35.407Z,67188.56
2022-11-24T03:22:05.758Z,67183.91
2022-11-24T03:24:33.705Z,67182.94
2022-11-24T03:27:01.328Z,67177.50
2022-11-24T03:30:17.821Z,67173.72
2022-11-24T03:33:05.922Z,67164.19
2022-11-24T03:35:33.266Z,67142.31
2022-11-24T03:38:04.996Z,67154.84
2022-11-24T03:40:32.438Z,67129.97
2022-11-24T03:42:59.806Z,67129.97
2022-11-24T03:45:45.547Z,67134.25
2022-11-24T03:48:14.993Z,67127.50
2022-11-24T03:50:58.988Z,67122.13
2022-11-24T03:53:29.139Z,67121.91
2022-11-24T03:55:57.283Z,67122.13
2022-11-24T03:58:25.195Z,67118.31
2022-11-24T04:00:53.252Z,67116.84
2022-11-24T04:03:49.700Z,67123.94
2022-11-24T04:06:17.062Z,67117.41
2022-11-24T04:08:44.462Z,67123.03
2022-11-24T04:11:36.041Z,67114.59
2022-11-24T04:14:06.631Z,67112.56
2022-11-24T04:16:37.179Z,67107.88
2022-11-24T04:19:04.560Z,67109.00
2022-11-24T04:21:32.071Z,67117.78
2022-11-24T04:23:59.476Z,67125.06
2022-11-24T04:26:31.338Z,67111.44
2022-11-24T04:28:58.773Z,67106.72
2022-11-24T04:31:26.190Z,67111.78
2022-11-24T04:34:21.092Z,67115.16
2022-11-24T04:36:48.558Z,67125.81
2022-11-24T04:39:22.975Z,67128.09
2022-11-24T04:41:53.826Z,67135.03
2022-11-24T04:44:47.053Z,67137.28
2022-11-24T04:47:24.051Z,67136.28
2022-11-24T04:50:40.013Z,67144.50
2022-11-24T04:53:07.367Z,67135.25
2022-11-24T04:55:34.684Z,67143.59
2022-11-24T04:58:18.259Z,67141.00
2022-11-24T05:01:18.242Z,67152.44
2022-11-24T05:04:05.821Z,67167.25
2022-11-24T05:06:33.374Z,67173.56
2022-11-24T05:09:00.991Z,67162.34
2022-11-24T05:11:28.760Z,67168.19
2022-11-24T05:13:56.146Z,67183.91
2022-11-24T05:16:23.439Z,67191.56
2022-11-24T05:18:51.151Z,67192.13
2022-11-24T05:21:18.682Z,67206.16
2022-11-24T05:23:46.201Z,67216.31
2022-11-24T05:26:13.806Z,67222.47
2022-11-24T05:28:41.198Z,67234.06
2022-11-24T05:31:09.107Z,67252.47
2022-11-24T05:33:37.134Z,67241.78
2022-11-24T05:36:06.814Z,67244.03
2022-11-24T05:38:34.332Z,67235.75
2022-11-24T05:41:05.314Z,67232.03
2022-11-24T05:43:32.781Z,67221.00
2022-11-24T05:46:01.393Z,67234.63
2022-11-24T05:48:28.767Z,67221.00
2022-11-24T05:50:57.544Z,67214.81
2022-11-24T05:53:27.187Z,67212.00
2022-11-24T05:55:54.764Z,67209.00
2022-11-24T05:58:22.220Z,67210.47
2022-11-24T06:00:49.835Z,67199.44
2022-11-24T06:03:17.436Z,67204.28
2022-11-24T06:05:47.373Z,67208.41
2022-11-24T06:08:15.264Z,67203.00
2022-11-24T06:10:42.696Z,67201.13
2022-11-24T06:13:10.159Z,67203.94
2022-11-24T06:15:38.632Z,67198.53
2022-11-24T06:18:06.126Z,67201.69
2022-11-24T06:20:33.580Z,67203.38
2022-11-24T06:23:01.625Z,67183.34
2022-11-24T06:25:30.511Z,67209.75
2022-11-24T06:27:58.200Z,67218.53
2022-11-24T06:30:25.730Z,67224.31
2022-11-24T06:32:56.246Z,67213.47
2022-11-24T06:35:23.710Z,67220.44
2022-11-24T06:37:51.236Z,67215.72
2022-11-24T06:40:18.717Z,67223.94
2022-11-24T06:42:51.623Z,67231.03
2022-11-24T06:45:19.114Z,67223.03
2022-11-24T06:47:46.413Z,67219.66
2022-11-24T06:50:13.872Z,67222.25
2022-11-24T06:52:41.503Z,67219.31
2022-11-24T06:55:09.057Z,67226.84
2022-11-24T06:57:36.551Z,67234.28
2022-11-24T07:00:08.055Z,67238.22
2022-11-24T07:02:35.544Z,67235.97
2022-11-24T07:05:03.046Z,67230.91
2022-11-24T07:07:30.508Z,67230.91
2022-11-24T07:09:57.940Z,67242.69
2022-11-24T07:12:25.295Z,67243.06
2022-11-24T07:14:52.592Z,67247.78
2022-11-24T07:17:20.316Z,67260.34
2022-11-24T07:19:47.711Z,67266.16
2022-11-24T07:22:15.175Z,67279.81
2022-11-24T07:24:42.683Z,67284.31
2022-11-24T07:27:10.113Z,67289.94
2022-11-24T07:29:37.522Z,67283.41
2022-11-24T07:32:05.844Z,67292.00
2022-11-24T07:34:33.655Z,67296.47
2022-11-24T07:37:03.905Z,67300.28
2022-11-24T07:39:31.475Z,67304.00
2022-11-24T07:42:00.560Z,67316.16
2022-11-24T07:44:28.168Z,67311.31
2022-11-24T07:46:55.784Z,67307.19
2022-11-24T07:49:23.145Z,67295.00
2022-11-24T07:51:50.596Z,67301.75
2022-11-24T07:54:17.954Z,67309.63
2022-11-24T07:56:48.270Z,67304.00
2022-11-24T07:59:15.939Z,67303.44
2022-11-24T08:01:43.537Z,67313.56
2022-11-24T08:04:11.026Z,67333.81
2022-11-24T08:06:43.163Z,67327.47
2022-11-24T08:09:13.428Z,67331.78
2022-11-24T08:11:40.758Z,67326.91
2022-11-24T08:14:08.309Z,67325.78
2022-11-24T08:16:35.696Z,67332.53
2022-11-24T08:19:03.119Z,67350.69
2022-11-24T08:21:30.677Z,67361.19
2022-11-24T08:23:58.505Z,67363.84
2022-11-24T08:26:26.486Z,67373.78
2022-11-24T08:28:56.550Z,67383.69
2022-11-24T08:31:27.383Z,67388.38
2022-11-24T08:33:58.854Z,67399.66
2022-11-24T08:36:26.484Z,67386.56
2022-11-24T08:38:56.531Z,67397.41
2022-11-24T08:41:24.479Z,67382.06
2022-11-24T08:43:51.930Z,67372.84
2022-11-24T08:46:19.819Z,67369.25
2022-11-24T08:48:51.249Z,67375.81
2022-11-24T08:51:21.616Z,67370.38
2022-11-24T08:53:48.999Z,67364.97
2022-11-24T08:56:16.395Z,67367.56
2022-11-24T08:58:43.884Z,67373.00
2022-11-24T09:01:14.314Z,67377.13
2022-11-24T09:03:48.526Z,67378.47
2022-11-24T09:06:23.193Z,67384.44
2022-11-24T09:08:55.810Z,67399.84
2022-11-24T09:11:24.858Z,67399.66
2022-11-24T09:13:53.285Z,67399.09
2022-11-24T09:16:23.287Z,67400.41
2022-11-24T09:19:02.195Z,67402.25
2022-11-24T09:21:31.398Z,67401.34
2022-11-24T09:23:59.406Z,67406.97
2022-11-24T09:26:29.051Z,67402.13
2022-11-24T09:28:58.042Z,67404.72
2022-11-24T09:31:29.016Z,67415.41
2022-11-24T09:33:57.160Z,67421.44
2022-11-24T09:36:24.689Z,67444.47
2022-11-24T09:38:52.327Z,67457.06
2022-11-24T09:41:41.519Z,67463.81
2022-11-24T09:44:08.903Z,67487.28
2022-11-24T09:46:58.923Z,67495.22
2022-11-24T09:49:55.780Z,67517.91
2022-11-24T09:52:49.017Z,67516.78
2022-11-24T09:55:31.770Z,67511.34
2022-11-24T09:58:27.659Z,67506.47
2022-11-24T10:00:56.521Z,67511.16
2022-11-24T10:03:33.201Z,67512.84
2022-11-24T10:06:09.816Z,67494.47
2022-11-24T10:08:49.320Z,67486.91
2022-11-24T10:11:30.972Z,67478.13
2022-11-24T10:14:08.662Z,67478.88
2022-11-24T10:16:46.421Z,67477.00
2022-11-24T10:19:53.744Z,67476.41
2022-11-24T10:23:04.738Z,67475.88
2022-11-24T10:25:42.812Z,67469.88
2022-11-24T10:28:15.537Z,67476.22
2022-11-24T10:30:43.628Z,67489.53
2022-11-24T10:33:24.252Z,67497.06
2022-11-24T10:36:08.004Z,67506.84
2022-11-24T10:38:45.876Z,67510.59
2022-11-24T10:41:20.844Z,67515.31
2022-11-24T10:43:48.238Z,67522.41
2022-11-24T10:46:24.192Z,67518.31
2022-11-24T10:49:02.275Z,67524.88
2022-11-24T10:51:44.418Z,67530.84
2022-11-24T10:54:23.864Z,67538.41
2022-11-24T10:56:52.810Z,67554.88
2022-11-24T10:59:36.890Z,67563.53
2022-11-24T11:02:30.169Z,67577.47
2022-11-24T11:04:58.554Z,67600.59
2022-11-24T11:07:26.875Z,67596.38
2022-11-24T11:10:19.565Z,67636.63
2022-11-24T11:12:47.415Z,67658.25
2022-11-24T11:15:41.426Z,67686.31
2022-11-24T11:18:16.594Z,67733.50
2022-11-24T11:20:51.734Z,67752.00
2022-11-24T11:23:28.013Z,67798.56
2022-11-24T11:26:27.718Z,67804.06
2022-11-24T11:35:03.806Z,67771.31
2022-11-24T11:37:33.557Z,67746.38
2022-11-24T11:40:01.601Z,67730.47
2022-11-24T11:45:45.625Z,67709.03
2022-11-24T11:48:42.651Z,67703.25
2022-11-24T11:51:27.097Z,67709.22
2022-11-24T11:54:16.070Z,67713.38
2022-11-24T11:56:49.685Z,67712.25
2022-11-24T11:59:39.535Z,67736.69
2022-11-24T12:02:39.514Z,67732.72
2022-11-24T12:05:30.076Z,67707.72
2022-11-24T12:08:20.504Z,67708.28
2022-11-24T12:10:53.961Z,67702.09
2022-11-24T12:13:45.859Z,67707.53
2022-11-24T12:16:45.511Z,67704.72
2022-11-24T12:19:41.775Z,67722.56
2022-11-24T12:22:33.781Z,67736.69
2022-11-24T12:25:46.125Z,67754.38
2022-11-24T12:28:37.738Z,67763.59
2022-11-24T12:31:07.668Z,67771.88
2022-11-24T12:33:38.211Z,67756.53
2022-11-24T12:36:43.080Z,67785.97
2022-11-24T12:39:19.545Z,67788.59
2022-11-24T12:42:08.875Z,67789.38
2022-11-24T12:45:06.380Z,67771.19
2022-11-24T12:47:36.594Z,67786.53
2022-11-24T12:50:15.907Z,67765.56
2022-11-24T12:53:08.390Z,67780.72
2022-11-24T12:55:36.867Z,67779.22
2022-11-24T12:58:23.037Z,67779.00
2022-11-24T13:00:59.735Z,67776.19
2022-11-24T13:03:45.683Z,67775.28
2022-11-24T13:06:16.511Z,67784.88
2022-11-24T13:08:44.839Z,67797.66
2022-11-24T13:11:21.318Z,67794.09
2022-11-24T13:14:01.417Z,67807.81
2022-11-24T13:16:36.271Z,67811.59
2022-11-24T13:19:14.105Z,67822.50
2022-11-24T13:21:41.676Z,67797.72
2022-11-24T13:24:19.351Z,67823.63
2022-11-24T13:27:16.848Z,67823.97
2022-11-24T13:29:51.851Z,67814.22
2022-11-24T13:32:19.251Z,67809.69
2022-11-24T13:34:54.790Z,67807.25
2022-11-24T13:37:26.405Z,67805.94
2022-11-24T13:40:17.941Z,67808.00
2022-11-24T13:42:54.773Z,67805.56
2022-11-24T13:45:49.883Z,67772.34
2022-11-24T13:48:21.030Z,67800.09
2022-11-24T13:50:54.894Z,67794.81
2022-11-24T13:53:29.161Z,67779.56
2022-11-24T13:56:21.740Z,67772.25
2022-11-24T13:58:58.878Z,67765.69
2022-11-24T14:01:32.481Z,67771.66
2022-11-24T14:04:31.811Z,67744.13
2022-11-24T14:07:09.392Z,67763.22
2022-11-24T14:09:48.081Z,67758.88
2022-11-24T14:12:19.118Z,67745.56
2022-11-24T14:14:48.570Z,67732.81
2022-11-24T14:17:24.732Z,67758.69
2022-11-24T14:19:56.916Z,67763.22
2022-11-24T14:22:40.140Z,67743.00
2022-11-24T14:25:22.892Z,67772.25
2022-11-24T14:27:50.494Z,67773.00
2022-11-24T14:30:21.264Z,67784.09
2022-11-24T14:33:00.288Z,67780.16
2022-11-24T14:35:34.095Z,67777.53
2022-11-24T14:38:03.172Z,67779.22
2022-11-24T14:40:49.918Z,67775.28
2022-11-24T14:43:30.484Z,67771.31
2022-11-24T14:46:09.453Z,67774.50
2022-11-24T14:48:39.712Z,67773.38
2022-11-24T14:51:28.624Z,67766.78
2022-11-24T14:54:00.031Z,67768.28
2022-11-24T14:56:34.605Z,67766.78
2022-11-24T14:59:02.746Z,67770.19
2022-11-24T15:01:34.147Z,67778.25
2022-11-24T15:04:54.226Z,67772.25
2022-11-24T15:07:27.278Z,67762.84
2022-11-24T15:10:02.617Z,67739.59
2022-11-24T15:12:41.626Z,67763.22
2022-11-24T15:15:15.067Z,67759.81
2022-11-24T15:17:54.145Z,67770.00
2022-11-24T15:20:37.351Z,67745.81
2022-11-24T15:23:23.157Z,67767.38
2022-11-24T15:25:57.851Z,67773.38
2022-11-24T15:28:28.034Z,67777.31
2022-11-24T15:31:06.809Z,67776.38
2022-11-24T15:33:34.687Z,67772.44
2022-11-24T15:36:02.434Z,67771.31
2022-11-24T15:38:30.133Z,67771.88
2022-11-24T15:41:00.038Z,67773.00
2022-11-24T15:43:40.775Z,67769.63
2022-11-24T15:46:09.211Z,67768.13
2022-11-24T15:48:36.806Z,67764.34
2022-11-24T15:51:13.336Z,67752.47
2022-11-24T15:53:47.335Z,67744.78
2022-11-24T15:56:36.913Z,67746.84
2022-11-24T15:59:04.787Z,67742.53
2022-11-24T16:01:33.796Z,67726.53
2022-11-24T16:04:02.381Z,67709.22
2022-11-24T16:06:29.879Z,67695.31
2022-11-24T16:08:58.284Z,67687.22
2022-11-24T16:11:26.052Z,67681.19
2022-11-24T16:13:54.356Z,67697.19
2022-11-24T16:16:25.450Z,67685.53
2022-11-24T16:18:53.500Z,67678.41
2022-11-24T16:21:21.169Z,67674.47
2022-11-24T16:23:48.894Z,67682.16
2022-11-24T16:26:16.355Z,67675.38
2022-11-24T16:28:45.281Z,67669.75
2022-11-24T16:31:15.866Z,67671.22
2022-11-24T16:33:45.477Z,67666.00
2022-11-24T16:36:14.152Z,67670.13
2022-11-24T16:38:41.746Z,67666.56
2022-11-24T16:41:10.569Z,67671.22
2022-11-24T16:43:38.369Z,67682.16
2022-11-24T16:46:08.771Z,67688.94
2022-11-24T16:48:36.511Z,67692.88
2022-11-24T16:51:08.885Z,67707.34
2022-11-24T16:53:37.074Z,67716.56
2022-11-24T16:56:04.636Z,67728.78
2022-11-24T16:58:32.334Z,67732.16
2022-11-24T17:01:08.100Z,67721.66
2022-11-24T17:03:38.994Z,67714.69
2022-11-24T17:06:08.687Z,67710.38
2022-11-24T17:08:37.620Z,67705.84
2022-11-24T17:11:18.551Z,67708.47
2022-11-24T17:13:47.611Z,67683.19
2022-11-24T17:16:17.572Z,67705.09
2022-11-24T17:18:45.518Z,67716.94
2022-11-24T17:21:14.157Z,67725.38
2022-11-24T17:23:41.896Z,67733.88
2022-11-24T17:26:11.750Z,67736.69
2022-11-24T17:28:39.686Z,67739.50
2022-11-24T17:31:26.718Z,67740.06
2022-11-24T17:33:56.128Z,67732.94
2022-11-24T17:36:24.213Z,67730.66
2022-11-24T17:38:51.985Z,67731.25
2022-11-24T17:41:19.924Z,67734.06
2022-11-24T17:43:51.689Z,67734.97
2022-11-24T17:46:19.717Z,67724.84
2022-11-24T17:48:47.267Z,67712.63
2022-11-24T17:51:17.817Z,67711.28
2022-11-24T17:53:49.523Z,67706.41
2022-11-24T17:56:19.478Z,67705.28
2022-11-24T17:58:46.946Z,67714.69
2022-11-24T18:01:14.464Z,67710.16
2022-11-24T18:03:42.511Z,67707.34
2022-11-24T18:06:16.114Z,67700.78
2022-11-24T18:08:45.731Z,67703.94
2022-11-24T18:11:16.508Z,67700.97
2022-11-24T18:16:34.319Z,67682.38
2022-11-24T18:19:09.086Z,67677.44
2022-11-24T18:21:39.140Z,67672.94
2022-11-24T18:24:08.106Z,67670.13
2022-11-24T18:26:35.766Z,67651.03
2022-11-24T18:29:03.923Z,67675.38
2022-11-24T18:31:32.391Z,67678.56
2022-11-24T18:34:00.031Z,67687.59
2022-11-24T18:36:30.522Z,67699.81
2022-11-24T18:39:06.414Z,67719.19
2022-11-24T18:41:39.388Z,67732.72
2022-11-24T18:44:08.632Z,67725.78
2022-11-24T18:46:37.399Z,67734.97
2022-11-24T18:49:05.567Z,67726.16
2022-11-24T18:51:35.640Z,67728.78
2022-11-24T18:54:05.049Z,67703.50
2022-11-24T18:56:32.809Z,67726.53
2022-11-24T18:59:00.232Z,67721.06
2022-11-24T19:01:29.384Z,67718.25
2022-11-24T19:03:59.720Z,67712.63
2022-11-24T19:06:35.747Z,67714.88
2022-11-24T19:09:13.322Z,67719.59
2022-11-24T19:11:43.320Z,67720.31
2022-11-24T19:14:16.663Z,67714.31
2022-11-24T19:16:48.430Z,67708.66
2022-11-24T19:19:17.602Z,67711.47
2022-11-24T19:21:46.273Z,67715.78
2022-11-24T19:24:14.000Z,67716.72
2022-11-24T19:26:42.118Z,67710.72
2022-11-24T19:29:09.983Z,67701.91
2022-11-24T19:31:40.928Z,67691.94
2022-11-24T19:34:09.352Z,67688.34
2022-11-24T19:36:37.878Z,67682.16
2022-11-24T19:39:05.788Z,67671.63
2022-11-24T19:41:35.302Z,67675.94
2022-11-24T19:44:02.838Z,67666.56
2022-11-24T19:46:31.680Z,67647.09
2022-11-24T19:49:01.306Z,67671.81
2022-11-24T19:51:31.434Z,67678.00
2022-11-24T19:54:00.164Z,67678.78
2022-11-24T19:56:30.088Z,67681.41
2022-11-24T19:58:58.203Z,67690.41
2022-11-24T20:01:31.520Z,67675.31
2022-11-24T20:04:05.772Z,67708.66
2022-11-24T20:06:37.194Z,67710.00
2022-11-24T20:09:09.004Z,67706.97
2022-11-24T20:11:36.751Z,67712.78
2022-11-24T20:14:05.415Z,67687.16
2022-11-24T20:16:34.975Z,67703.25
2022-11-24T20:19:08.685Z,67710.53
2022-11-24T20:21:38.304Z,67708.66
2022-11-24T20:24:13.733Z,67710.91
2022-11-24T20:26:44.821Z,67712.06
2022-11-24T20:29:13.504Z,67713.19
2022-11-24T20:31:47.045Z,67720.31
2022-11-24T20:34:15.320Z,67717.34
2022-11-24T20:36:48.577Z,67717.13
2022-11-24T20:39:40.811Z,67712.44
2022-11-24T20:42:28.808Z,67702.66
2022-11-24T20:45:01.156Z,67697.94
2022-11-24T20:47:31.121Z,67696.63
2022-11-24T20:49:58.986Z,67695.50
2022-11-24T20:52:26.619Z,67688.16
2022-11-24T20:54:53.931Z,67681.59
2022-11-24T20:57:22.509Z,67676.50
2022-11-24T20:59:52.682Z,67678.38
2022-11-24T21:02:21.314Z,67668.25
2022-11-24T21:04:48.753Z,67676.88
2022-11-24T21:07:16.477Z,67675.38
2022-11-24T21:09:44.153Z,67683.66
2022-11-24T21:12:12.422Z,67677.28
2022-11-24T21:14:40.161Z,67674.47
2022-11-24T21:17:08.135Z,67681.22
2022-11-24T21:19:35.462Z,67685.91
2022-11-24T21:22:02.762Z,67680.81
2022-11-24T21:24:31.060Z,67677.66
2022-11-24T21:26:58.749Z,67683.28
2022-11-24T21:29:26.326Z,67679.53
2022-11-24T21:31:54.021Z,67685.34
2022-11-24T21:34:21.552Z,67680.47
2022-11-24T21:36:49.193Z,67690.22
2022-11-24T21:39:16.907Z,67690.97
2022-11-24T21:41:44.635Z,67687.22
2022-11-24T21:44:13.543Z,67699.22
2022-11-24T21:46:46.119Z,67701.91
2022-11-24T21:49:17.019Z,67707.53
2022-11-24T21:51:44.416Z,67712.63
2022-11-24T21:54:11.806Z,67717.50
2022-11-24T21:56:39.158Z,67722.22
2022-11-24T21:59:06.564Z,67724.47
2022-11-24T22:01:34.042Z,67729.34
2022-11-24T22:04:01.532Z,67730.28
2022-11-24T22:06:28.933Z,67728.78
2022-11-24T22:08:56.403Z,67725.97
2022-11-24T22:11:25.428Z,67701.78
2022-11-24T22:13:53.280Z,67729.75
2022-11-24T22:16:23.518Z,67730.66
2022-11-24T22:18:51.603Z,67735.19
2022-11-24T22:21:23.920Z,67733.50
2022-11-24T22:23:55.342Z,67739.88
2022-11-24T22:26:24.621Z,67744.56
2022-11-24T22:28:53.774Z,67724.38
2022-11-24T22:31:23.517Z,67740.47
2022-11-24T22:33:51.913Z,67736.53
2022-11-24T22:36:23.097Z,67736.88
2022-11-24T22:39:03.951Z,67737.25
2022-11-24T22:41:33.076Z,67732.16
2022-11-24T22:44:03.749Z,67727.09
2022-11-24T22:46:32.395Z,67724.47
2022-11-24T22:49:01.575Z,67725.97
2022-11-24T22:51:32.471Z,67724.28
2022-11-24T22:54:02.646Z,67713.94
2022-11-24T22:56:33.548Z,67716.38
2022-11-24T22:59:02.382Z,67710.91
2022-11-24T23:01:30.710Z,67708.13
2022-11-24T23:03:58.205Z,67716.94
2022-11-24T23:06:28.767Z,67713.19
2022-11-24T23:08:57.855Z,67701.53
2022-11-24T23:11:33.826Z,67694.34
2022-11-24T23:14:02.602Z,67685.91
2022-11-24T23:16:30.468Z,67676.50
2022-11-24T23:18:57.842Z,67679.72
2022-11-24T23:21:27.880Z,67678.78
2022-11-24T23:23:56.140Z,67677.09
2022-11-24T23:26:32.834Z,67673.34
2022-11-24T23:29:00.568Z,67682.72
2022-11-24T23:31:29.166Z,67649.34
2022-11-24T23:34:02.103Z,67672.56
2022-11-24T23:36:30.229Z,67679.13
2022-11-24T23:39:08.973Z,67681.41
2022-11-24T23:41:36.502Z,67681.59
2022-11-24T23:44:04.114Z,67682.16
2022-11-24T23:46:32.155Z,67682.16
2022-11-24T23:49:00.014Z,67686.47
2022-11-24T23:51:32.639Z,67688.94
2022-11-24T23:54:01.664Z,67687.59
2022-11-24T23:56:32.760Z,67684.06
2022-11-24T23:59:02.545Z,67684.06
